Daufuskie Island, SC (29915)

4:50 PM EST on February 11, 2016 (GMT -0500)
Hearthwood Dr-Sea Pines | | Change Station
CLOSE
Current Station
Personal Weather Station
Location: Hilton Head Island, SC
Elevation: 37 ft
Nearby Weather Stations

Elev 37 ft 32.15 °N, 80.79 °W | Updated 4 minutes ago

Clear
Clear
55.8 °F
Feels Like 55.8 °F
N
0.0
Wind Variable Wind from WSW
Gusts 2.0 mph

Today
High -- | Low -- °F
--% Chance of Precip.
Yesterday
High -- | Low -- °F
Precip. -- in
Pressure 30.16 in
Visibility 10.0 miles
Clouds Clear
Dew Point 38 °F
Humidity 52%
Rainfall 0.00 in
Snow Depth Not available.
7:09 AM 6:05 PM
Waxing Crescent, 14% visible
METAR KHXD 112050Z 17008KT 10SM SKC 10/00 A3016
Pressure 30.16 in
Visibility 10.0 miles
Clouds Clear
Dew Point 38 °F
Humidity 52%
Rainfall 0.00 in
Snow Depth Not available.
7:09 AM 6:05 PM
Waxing Crescent, 14% visible
METAR KHXD 112050Z 17008KT 10SM SKC 10/00 A3016

10-Day Weather Forecast

Almanac

Astronomy

Feb. 11, 2016 Rise Set
Actual Time
Civil Twilight
Nautical Twilight
Astronomical Twilight
Moon
Length of Visible Light
Length of Day
Tomorrow will be .
, % of the Moon is Illuminated

Today's Extremes

State Highs State Lows

Community

WunderPhotos

Upload Photos

1,892,165 photos uploaded!

WunderBlog® & News

Nearby

Air Quality

  Air Quality AQ Index Pollutant
Not available.

Snow Depth

Station Depth Elevation

Earthquake Activity

City Distance Mag. Time & Date
Minimum magnitude displayed is 2.5.

Coastal Water Temperatures

Place Temperature

Stations

Nearby Weather Stations

Station Location Temp. Windchill Dew Point Humidity Wind Precip. Elev Updated Type
                   

Watches & Warnings

There are currently no watches in effect.